sensor_id;sensor_type;location;lat;lon;timestamp;P1;durP1;ratioP1;P2;durP2;ratioP2
14613;SDS011;7393;51.446;6.800;2024-03-02T00:00:49;1.40;;;1.30;;
14613;SDS011;7393;51.446;6.800;2024-03-02T00:03:16;1.73;;;1.30;;
14613;SDS011;7393;51.446;6.800;2024-03-02T00:05:44;1.63;;;1.30;;
14613;SDS011;7393;51.446;6.800;2024-03-02T00:08:15;1.30;;;0.90;;
14613;SDS011;7393;51.446;6.800;2024-03-02T00:10:48;1.47;;;1.20;;
14613;SDS011;7393;51.446;6.800;2024-03-02T00:13:15;1.50;;;1.33;;
14613;SDS011;7393;51.446;6.800;2024-03-02T00:15:42;1.83;;;1.30;;
14613;SDS011;7393;51.446;6.800;2024-03-02T00:18:12;1.80;;;1.40;;
14613;SDS011;7393;51.446;6.800;2024-03-02T00:20:40;1.50;;;1.30;;
14613;SDS011;7393;51.446;6.800;2024-03-02T00:23:09;2.60;;;1.40;;
14613;SDS011;7393;51.446;6.800;2024-03-02T00:25:40;2.73;;;1.20;;
14613;SDS011;7393;51.446;6.800;2024-03-02T00:28:13;2.73;;;1.17;;
14613;SDS011;7393;51.446;6.800;2024-03-02T00:33:29;1.30;;;1.20;;
14613;SDS011;7393;51.446;6.800;2024-03-02T00:35:57;2.43;;;1.30;;
14613;SDS011;7393;51.446;6.800;2024-03-02T00:38:26;1.10;;;1.00;;
14613;SDS011;7393;51.446;6.800;2024-03-02T00:40:53;1.53;;;1.20;;
14613;SDS011;7393;51.446;6.800;2024-03-02T00:43:38;2.50;;;1.30;;
14613;SDS011;7393;51.446;6.800;2024-03-02T00:46:13;1.90;;;1.50;;
14613;SDS011;7393;51.446;6.800;2024-03-02T00:48:45;2.93;;;1.27;;
14613;SDS011;7393;51.446;6.800;2024-03-02T00:51:17;2.07;;;1.20;;
14613;SDS011;7393;51.446;6.800;2024-03-02T00:53:45;3.23;;;1.33;;
14613;SDS011;7393;51.446;6.800;2024-03-02T00:56:12;3.00;;;1.40;;
14613;SDS011;7393;51.446;6.800;2024-03-02T00:58:40;1.87;;;1.30;;
14613;SDS011;7393;51.446;6.800;2024-03-02T01:01:06;1.23;;;1.13;;
14613;SDS011;7393;51.446;6.800;2024-03-02T01:03:34;1.57;;;1.00;;
14613;SDS011;7393;51.446;6.800;2024-03-02T01:06:02;1.50;;;1.20;;
14613;SDS011;7393;51.446;6.800;2024-03-02T01:08:29;3.80;;;1.37;;
14613;SDS011;7393;51.446;6.800;2024-03-02T01:10:58;2.33;;;1.33;;
14613;SDS011;7393;51.446;6.800;2024-03-02T01:13:24;1.77;;;1.30;;
14613;SDS011;7393;51.446;6.800;2024-03-02T01:15:51;3.33;;;1.30;;
14613;SDS011;7393;51.446;6.800;2024-03-02T01:18:18;1.47;;;1.33;;
14613;SDS011;7393;51.446;6.800;2024-03-02T01:20:45;2.10;;;1.20;;
14613;SDS011;7393;51.446;6.800;2024-03-02T01:23:12;1.90;;;1.43;;
14613;SDS011;7393;51.446;6.800;2024-03-02T01:25:39;1.53;;;1.17;;
14613;SDS011;7393;51.446;6.800;2024-03-02T01:28:07;3.07;;;1.27;;
14613;SDS011;7393;51.446;6.800;2024-03-02T01:30:34;1.30;;;1.20;;
14613;SDS011;7393;51.446;6.800;2024-03-02T01:33:01;3.57;;;1.20;;
14613;SDS011;7393;51.446;6.800;2024-03-02T01:35:30;3.00;;;1.20;;
14613;SDS011;7393;51.446;6.800;2024-03-02T01:37:57;1.30;;;1.10;;
14613;SDS011;7393;51.446;6.800;2024-03-02T01:40:24;1.47;;;1.20;;
14613;SDS011;7393;51.446;6.800;2024-03-02T01:42:51;2.10;;;1.20;;
14613;SDS011;7393;51.446;6.800;2024-03-02T01:45:20;1.77;;;1.40;;
14613;SDS011;7393;51.446;6.800;2024-03-02T01:47:47;2.63;;;1.40;;
14613;SDS011;7393;51.446;6.800;2024-03-02T01:50:14;1.67;;;1.30;;
14613;SDS011;7393;51.446;6.800;2024-03-02T01:52:41;2.10;;;1.37;;
14613;SDS011;7393;51.446;6.800;2024-03-02T01:55:09;1.70;;;1.07;;
14613;SDS011;7393;51.446;6.800;2024-03-02T01:57:36;1.10;;;1.00;;
14613;SDS011;7393;51.446;6.800;2024-03-02T02:00:03;3.20;;;1.70;;
14613;SDS011;7393;51.446;6.800;2024-03-02T02:02:36;3.00;;;1.30;;
14613;SDS011;7393;51.446;6.800;2024-03-02T02:05:03;1.90;;;1.37;;
14613;SDS011;7393;51.446;6.800;2024-03-02T02:07:29;2.83;;;1.20;;
14613;SDS011;7393;51.446;6.800;2024-03-02T02:09:56;2.60;;;1.20;;
14613;SDS011;7393;51.446;6.800;2024-03-02T02:12:23;2.00;;;1.10;;
14613;SDS011;7393;51.446;6.800;2024-03-02T02:14:50;2.80;;;1.40;;
14613;SDS011;7393;51.446;6.800;2024-03-02T02:17:17;2.87;;;1.10;;
14613;SDS011;7393;51.446;6.800;2024-03-02T02:19:45;1.63;;;1.10;;
14613;SDS011;7393;51.446;6.800;2024-03-02T02:22:13;1.87;;;1.30;;
14613;SDS011;7393;51.446;6.800;2024-03-02T02:24:40;2.47;;;1.30;;
14613;SDS011;7393;51.446;6.800;2024-03-02T02:27:07;2.03;;;1.10;;
14613;SDS011;7393;51.446;6.800;2024-03-02T02:29:34;2.23;;;1.20;;
14613;SDS011;7393;51.446;6.800;2024-03-02T02:32:01;3.10;;;1.10;;
14613;SDS011;7393;51.446;6.800;2024-03-02T02:34:28;2.20;;;1.00;;
14613;SDS011;7393;51.446;6.800;2024-03-02T02:36:55;2.93;;;1.13;;
14613;SDS011;7393;51.446;6.800;2024-03-02T02:39:23;1.20;;;1.07;;
14613;SDS011;7393;51.446;6.800;2024-03-02T02:41:50;2.67;;;1.17;;
14613;SDS011;7393;51.446;6.800;2024-03-02T02:44:17;3.63;;;1.30;;
14613;SDS011;7393;51.446;6.800;2024-03-02T02:46:44;4.10;;;1.20;;
14613;SDS011;7393;51.446;6.800;2024-03-02T02:49:10;4.27;;;1.50;;
14613;SDS011;7393;51.446;6.800;2024-03-02T02:51:37;2.13;;;1.00;;
14613;SDS011;7393;51.446;6.800;2024-03-02T02:54:04;1.83;;;1.17;;
14613;SDS011;7393;51.446;6.800;2024-03-02T02:56:32;2.67;;;1.20;;
14613;SDS011;7393;51.446;6.800;2024-03-02T02:58:59;1.30;;;1.03;;
14613;SDS011;7393;51.446;6.800;2024-03-02T03:01:26;2.30;;;1.20;;
14613;SDS011;7393;51.446;6.800;2024-03-02T03:03:53;3.83;;;1.10;;
14613;SDS011;7393;51.446;6.800;2024-03-02T03:06:20;1.83;;;1.23;;
14613;SDS011;7393;51.446;6.800;2024-03-02T03:08:47;2.47;;;1.10;;
14613;SDS011;7393;51.446;6.800;2024-03-02T03:11:13;2.23;;;1.13;;
14613;SDS011;7393;51.446;6.800;2024-03-02T03:13:42;2.13;;;1.17;;
14613;SDS011;7393;51.446;6.800;2024-03-02T03:16:08;2.60;;;1.20;;
14613;SDS011;7393;51.446;6.800;2024-03-02T03:18:35;1.73;;;1.13;;
14613;SDS011;7393;51.446;6.800;2024-03-02T03:21:03;3.43;;;1.30;;
14613;SDS011;7393;51.446;6.800;2024-03-02T03:23:30;3.00;;;1.10;;
14613;SDS011;7393;51.446;6.800;2024-03-02T03:25:57;2.03;;;1.20;;
14613;SDS011;7393;51.446;6.800;2024-03-02T03:28:23;3.13;;;1.20;;
14613;SDS011;7393;51.446;6.800;2024-03-02T03:30:51;2.73;;;1.30;;
14613;SDS011;7393;51.446;6.800;2024-03-02T03:33:18;4.70;;;1.50;;
14613;SDS011;7393;51.446;6.800;2024-03-02T03:35:45;1.60;;;1.30;;
14613;SDS011;7393;51.446;6.800;2024-03-02T03:38:13;2.63;;;1.20;;
14613;SDS011;7393;51.446;6.800;2024-03-02T03:40:40;1.93;;;1.07;;
14613;SDS011;7393;51.446;6.800;2024-03-02T03:43:07;1.50;;;1.13;;
14613;SDS011;7393;51.446;6.800;2024-03-02T03:45:33;2.00;;;1.43;;
14613;SDS011;7393;51.446;6.800;2024-03-02T03:48:02;2.73;;;1.40;;
14613;SDS011;7393;51.446;6.800;2024-03-02T03:50:29;3.37;;;1.50;;
14613;SDS011;7393;51.446;6.800;2024-03-02T03:52:55;2.30;;;1.50;;
14613;SDS011;7393;51.446;6.800;2024-03-02T03:55:22;3.37;;;1.50;;
14613;SDS011;7393;51.446;6.800;2024-03-02T03:57:49;2.43;;;1.37;;
14613;SDS011;7393;51.446;6.800;2024-03-02T04:00:16;4.73;;;1.40;;
14613;SDS011;7393;51.446;6.800;2024-03-02T04:02:43;3.60;;;1.73;;
14613;SDS011;7393;51.446;6.800;2024-03-02T04:05:11;1.97;;;1.40;;
14613;SDS011;7393;51.446;6.800;2024-03-02T04:07:38;2.73;;;1.67;;
14613;SDS011;7393;51.446;6.800;2024-03-02T04:10:06;2.43;;;1.40;;
14613;SDS011;7393;51.446;6.800;2024-03-02T04:12:34;2.40;;;1.63;;
14613;SDS011;7393;51.446;6.800;2024-03-02T04:15:02;2.77;;;1.57;;
14613;SDS011;7393;51.446;6.800;2024-03-02T04:17:31;2.33;;;1.50;;
14613;SDS011;7393;51.446;6.800;2024-03-02T04:19:58;2.40;;;1.50;;
14613;SDS011;7393;51.446;6.800;2024-03-02T04:22:27;2.87;;;1.50;;
14613;SDS011;7393;51.446;6.800;2024-03-02T04:24:54;2.43;;;1.50;;
14613;SDS011;7393;51.446;6.800;2024-03-02T04:27:21;1.60;;;1.37;;
14613;SDS011;7393;51.446;6.800;2024-03-02T04:29:47;3.87;;;1.80;;
14613;SDS011;7393;51.446;6.800;2024-03-02T04:32:14;3.07;;;1.40;;
14613;SDS011;7393;51.446;6.800;2024-03-02T04:34:41;2.63;;;1.37;;
14613;SDS011;7393;51.446;6.800;2024-03-02T04:37:08;1.93;;;1.40;;
14613;SDS011;7393;51.446;6.800;2024-03-02T04:39:39;1.93;;;1.30;;
14613;SDS011;7393;51.446;6.800;2024-03-02T04:42:04;2.70;;;1.73;;
14613;SDS011;7393;51.446;6.800;2024-03-02T04:44:31;3.17;;;1.40;;
14613;SDS011;7393;51.446;6.800;2024-03-02T04:46:58;3.57;;;1.60;;
14613;SDS011;7393;51.446;6.800;2024-03-02T04:49:25;2.50;;;1.40;;
14613;SDS011;7393;51.446;6.800;2024-03-02T04:51:51;1.83;;;1.40;;
14613;SDS011;7393;51.446;6.800;2024-03-02T04:54:18;2.53;;;1.20;;
14613;SDS011;7393;51.446;6.800;2024-03-02T04:56:46;2.80;;;1.13;;
14613;SDS011;7393;51.446;6.800;2024-03-02T04:59:15;1.80;;;1.10;;
14613;SDS011;7393;51.446;6.800;2024-03-02T05:01:42;1.43;;;1.10;;
14613;SDS011;7393;51.446;6.800;2024-03-02T05:04:08;2.77;;;1.20;;
14613;SDS011;7393;51.446;6.800;2024-03-02T05:06:36;1.77;;;1.37;;
14613;SDS011;7393;51.446;6.800;2024-03-02T05:09:04;3.00;;;1.27;;
14613;SDS011;7393;51.446;6.800;2024-03-02T05:11:31;2.23;;;1.50;;
14613;SDS011;7393;51.446;6.800;2024-03-02T05:14:31;5.30;;;1.50;;
14613;SDS011;7393;51.446;6.800;2024-03-02T05:16:57;7.87;;;1.60;;
14613;SDS011;7393;51.446;6.800;2024-03-02T05:19:24;5.60;;;1.53;;
14613;SDS011;7393;51.446;6.800;2024-03-02T05:21:51;5.73;;;2.00;;
14613;SDS011;7393;51.446;6.800;2024-03-02T05:24:18;3.23;;;1.30;;
14613;SDS011;7393;51.446;6.800;2024-03-02T05:26:44;4.40;;;1.30;;
14613;SDS011;7393;51.446;6.800;2024-03-02T05:29:11;5.40;;;1.30;;
14613;SDS011;7393;51.446;6.800;2024-03-02T05:31:39;6.43;;;1.30;;
14613;SDS011;7393;51.446;6.800;2024-03-02T05:34:06;2.17;;;1.40;;
14613;SDS011;7393;51.446;6.800;2024-03-02T05:36:33;5.30;;;1.57;;
14613;SDS011;7393;51.446;6.800;2024-03-02T05:39:00;40.00;;;3.30;;
14613;SDS011;7393;51.446;6.800;2024-03-02T05:41:29;21.93;;;2.60;;
14613;SDS011;7393;51.446;6.800;2024-03-02T05:43:56;9.03;;;1.53;;
14613;SDS011;7393;51.446;6.800;2024-03-02T05:46:23;4.53;;;1.60;;
14613;SDS011;7393;51.446;6.800;2024-03-02T05:48:51;2.20;;;1.30;;
14613;SDS011;7393;51.446;6.800;2024-03-02T05:51:18;5.70;;;1.50;;
14613;SDS011;7393;51.446;6.800;2024-03-02T05:53:45;11.90;;;1.97;;
14613;SDS011;7393;51.446;6.800;2024-03-02T05:56:12;9.97;;;1.60;;
14613;SDS011;7393;51.446;6.800;2024-03-02T05:58:40;3.87;;;1.50;;
14613;SDS011;7393;51.446;6.800;2024-03-02T06:01:22;6.50;;;1.87;;
14613;SDS011;7393;51.446;6.800;2024-03-02T06:03:54;4.27;;;1.37;;
14613;SDS011;7393;51.446;6.800;2024-03-02T06:06:21;6.03;;;1.50;;
14613;SDS011;7393;51.446;6.800;2024-03-02T06:08:48;22.37;;;2.37;;
14613;SDS011;7393;51.446;6.800;2024-03-02T06:11:15;14.87;;;1.80;;
14613;SDS011;7393;51.446;6.800;2024-03-02T06:13:42;7.77;;;1.80;;
14613;SDS011;7393;51.446;6.800;2024-03-02T06:16:09;5.30;;;1.50;;
14613;SDS011;7393;51.446;6.800;2024-03-02T06:18:35;11.97;;;1.97;;
14613;SDS011;7393;51.446;6.800;2024-03-02T06:21:04;7.93;;;1.80;;
14613;SDS011;7393;51.446;6.800;2024-03-02T06:23:30;3.33;;;1.50;;
14613;SDS011;7393;51.446;6.800;2024-03-02T06:25:57;7.60;;;1.40;;
14613;SDS011;7393;51.446;6.800;2024-03-02T06:28:24;3.33;;;1.50;;
14613;SDS011;7393;51.446;6.800;2024-03-02T06:30:51;5.53;;;1.70;;
14613;SDS011;7393;51.446;6.800;2024-03-02T06:33:19;6.07;;;1.53;;
14613;SDS011;7393;51.446;6.800;2024-03-02T06:35:45;5.30;;;2.00;;
14613;SDS011;7393;51.446;6.800;2024-03-02T06:38:15;10.70;;;1.80;;
14613;SDS011;7393;51.446;6.800;2024-03-02T06:40:42;4.27;;;1.50;;
14613;SDS011;7393;51.446;6.800;2024-03-02T06:43:09;12.27;;;1.97;;
14613;SDS011;7393;51.446;6.800;2024-03-02T06:45:36;4.33;;;1.40;;
14613;SDS011;7393;51.446;6.800;2024-03-02T06:48:03;4.57;;;1.73;;
14613;SDS011;7393;51.446;6.800;2024-03-02T06:50:30;5.50;;;1.83;;
14613;SDS011;7393;51.446;6.800;2024-03-02T06:52:57;4.20;;;1.30;;
14613;SDS011;7393;51.446;6.800;2024-03-02T06:55:25;3.17;;;1.57;;
14613;SDS011;7393;51.446;6.800;2024-03-02T06:57:52;6.57;;;1.67;;
14613;SDS011;7393;51.446;6.800;2024-03-02T07:00:19;3.77;;;1.60;;
14613;SDS011;7393;51.446;6.800;2024-03-02T07:02:46;1.97;;;1.50;;
14613;SDS011;7393;51.446;6.800;2024-03-02T07:05:13;1.97;;;1.30;;
14613;SDS011;7393;51.446;6.800;2024-03-02T07:07:40;4.27;;;1.80;;
14613;SDS011;7393;51.446;6.800;2024-03-02T07:10:07;3.30;;;1.53;;
14613;SDS011;7393;51.446;6.800;2024-03-02T07:12:35;15.37;;;2.57;;
14613;SDS011;7393;51.446;6.800;2024-03-02T07:15:02;2.23;;;1.50;;
14613;SDS011;7393;51.446;6.800;2024-03-02T07:17:55;5.80;;;1.97;;
14613;SDS011;7393;51.446;6.800;2024-03-02T07:20:21;11.37;;;2.10;;
14613;SDS011;7393;51.446;6.800;2024-03-02T07:22:48;5.07;;;1.70;;
14613;SDS011;7393;51.446;6.800;2024-03-02T07:25:15;5.47;;;1.60;;
14613;SDS011;7393;51.446;6.800;2024-03-02T07:27:43;6.17;;;1.93;;
14613;SDS011;7393;51.446;6.800;2024-03-02T07:30:13;4.53;;;1.80;;
14613;SDS011;7393;51.446;6.800;2024-03-02T07:32:41;3.30;;;1.77;;
14613;SDS011;7393;51.446;6.800;2024-03-02T07:35:10;4.20;;;1.40;;
14613;SDS011;7393;51.446;6.800;2024-03-02T07:37:37;5.77;;;1.67;;
14613;SDS011;7393;51.446;6.800;2024-03-02T07:40:05;3.47;;;1.60;;
14613;SDS011;7393;51.446;6.800;2024-03-02T07:42:36;5.53;;;2.27;;
14613;SDS011;7393;51.446;6.800;2024-03-02T07:45:05;2.77;;;1.80;;
14613;SDS011;7393;51.446;6.800;2024-03-02T07:47:32;2.90;;;1.63;;
14613;SDS011;7393;51.446;6.800;2024-03-02T07:49:59;7.10;;;1.77;;
14613;SDS011;7393;51.446;6.800;2024-03-02T07:52:26;6.63;;;1.80;;
14613;SDS011;7393;51.446;6.800;2024-03-02T07:54:53;15.60;;;2.63;;
14613;SDS011;7393;51.446;6.800;2024-03-02T07:57:20;3.73;;;1.60;;
14613;SDS011;7393;51.446;6.800;2024-03-02T07:59:47;5.13;;;1.93;;
14613;SDS011;7393;51.446;6.800;2024-03-02T08:02:15;6.67;;;2.03;;
14613;SDS011;7393;51.446;6.800;2024-03-02T08:04:42;2.80;;;1.70;;
14613;SDS011;7393;51.446;6.800;2024-03-02T08:07:10;3.23;;;1.67;;
14613;SDS011;7393;51.446;6.800;2024-03-02T08:09:37;2.43;;;1.63;;
14613;SDS011;7393;51.446;6.800;2024-03-02T08:12:04;6.57;;;2.17;;
14613;SDS011;7393;51.446;6.800;2024-03-02T08:14:31;16.07;;;2.20;;
14613;SDS011;7393;51.446;6.800;2024-03-02T08:16:58;2.87;;;1.67;;
14613;SDS011;7393;51.446;6.800;2024-03-02T08:19:27;2.80;;;1.70;;
14613;SDS011;7393;51.446;6.800;2024-03-02T08:21:55;8.60;;;2.07;;
14613;SDS011;7393;51.446;6.800;2024-03-02T08:24:24;4.10;;;2.20;;
14613;SDS011;7393;51.446;6.800;2024-03-02T08:26:51;7.43;;;2.37;;
14613;SDS011;7393;51.446;6.800;2024-03-02T08:29:17;3.57;;;2.00;;
14613;SDS011;7393;51.446;6.800;2024-03-02T08:31:44;3.63;;;1.90;;
14613;SDS011;7393;51.446;6.800;2024-03-02T08:34:11;2.87;;;1.57;;
14613;SDS011;7393;51.446;6.800;2024-03-02T08:36:39;4.20;;;1.57;;
14613;SDS011;7393;51.446;6.800;2024-03-02T08:39:07;4.87;;;1.90;;
14613;SDS011;7393;51.446;6.800;2024-03-02T08:41:40;3.17;;;1.80;;
14613;SDS011;7393;51.446;6.800;2024-03-02T08:44:07;3.90;;;2.10;;
14613;SDS011;7393;51.446;6.800;2024-03-02T08:46:34;4.23;;;1.70;;
14613;SDS011;7393;51.446;6.800;2024-03-02T08:49:01;3.33;;;1.40;;
14613;SDS011;7393;51.446;6.800;2024-03-02T08:51:28;2.73;;;1.60;;
14613;SDS011;7393;51.446;6.800;2024-03-02T08:53:56;4.57;;;1.70;;
14613;SDS011;7393;51.446;6.800;2024-03-02T08:56:23;3.47;;;1.83;;
14613;SDS011;7393;51.446;6.800;2024-03-02T08:58:50;1.70;;;1.50;;
14613;SDS011;7393;51.446;6.800;2024-03-02T09:01:17;4.07;;;1.70;;
14613;SDS011;7393;51.446;6.800;2024-03-02T09:03:44;4.93;;;1.90;;
14613;SDS011;7393;51.446;6.800;2024-03-02T09:06:11;4.10;;;1.80;;
14613;SDS011;7393;51.446;6.800;2024-03-02T09:08:38;1.57;;;1.33;;
14613;SDS011;7393;51.446;6.800;2024-03-02T09:11:07;6.00;;;2.13;;
14613;SDS011;7393;51.446;6.800;2024-03-02T09:13:33;4.43;;;1.80;;
14613;SDS011;7393;51.446;6.800;2024-03-02T09:16:00;2.57;;;1.57;;
14613;SDS011;7393;51.446;6.800;2024-03-02T09:18:27;3.10;;;1.60;;
14613;SDS011;7393;51.446;6.800;2024-03-02T09:20:54;3.27;;;1.40;;
14613;SDS011;7393;51.446;6.800;2024-03-02T09:23:21;2.53;;;1.57;;
14613;SDS011;7393;51.446;6.800;2024-03-02T09:25:48;6.70;;;1.70;;
14613;SDS011;7393;51.446;6.800;2024-03-02T09:28:16;4.37;;;1.67;;
14613;SDS011;7393;51.446;6.800;2024-03-02T09:30:43;1.87;;;1.40;;
14613;SDS011;7393;51.446;6.800;2024-03-02T09:33:10;2.60;;;1.67;;
14613;SDS011;7393;51.446;6.800;2024-03-02T09:35:37;2.17;;;1.40;;
14613;SDS011;7393;51.446;6.800;2024-03-02T09:38:03;3.53;;;1.70;;
14613;SDS011;7393;51.446;6.800;2024-03-02T09:40:30;3.37;;;1.60;;
14613;SDS011;7393;51.446;6.800;2024-03-02T09:42:57;4.63;;;1.40;;
14613;SDS011;7393;51.446;6.800;2024-03-02T09:45:26;4.70;;;1.77;;
14613;SDS011;7393;51.446;6.800;2024-03-02T09:47:53;3.53;;;1.57;;
14613;SDS011;7393;51.446;6.800;2024-03-02T09:50:21;3.73;;;1.33;;
14613;SDS011;7393;51.446;6.800;2024-03-02T09:52:48;5.20;;;1.57;;
14613;SDS011;7393;51.446;6.800;2024-03-02T09:55:15;3.30;;;1.70;;
14613;SDS011;7393;51.446;6.800;2024-03-02T09:57:43;1.77;;;1.30;;
14613;SDS011;7393;51.446;6.800;2024-03-02T10:00:10;2.43;;;1.30;;
14613;SDS011;7393;51.446;6.800;2024-03-02T10:02:41;3.30;;;1.23;;
14613;SDS011;7393;51.446;6.800;2024-03-02T10:05:08;1.63;;;1.30;;
14613;SDS011;7393;51.446;6.800;2024-03-02T10:07:35;2.33;;;1.30;;
14613;SDS011;7393;51.446;6.800;2024-03-02T10:10:12;2.30;;;1.43;;
14613;SDS011;7393;51.446;6.800;2024-03-02T10:12:40;3.03;;;1.60;;
14613;SDS011;7393;51.446;6.800;2024-03-02T10:15:07;2.00;;;1.20;;
14613;SDS011;7393;51.446;6.800;2024-03-02T10:17:34;3.70;;;1.30;;
14613;SDS011;7393;51.446;6.800;2024-03-02T10:22:51;4.87;;;1.30;;
14613;SDS011;7393;51.446;6.800;2024-03-02T10:28:03;2.47;;;1.20;;
14613;SDS011;7393;51.446;6.800;2024-03-02T10:30:31;4.53;;;1.43;;
14613;SDS011;7393;51.446;6.800;2024-03-02T10:32:58;5.47;;;1.30;;
14613;SDS011;7393;51.446;6.800;2024-03-02T10:35:27;2.73;;;1.43;;
14613;SDS011;7393;51.446;6.800;2024-03-02T10:37:56;3.20;;;1.23;;
14613;SDS011;7393;51.446;6.800;2024-03-02T10:40:26;1.70;;;1.20;;
14613;SDS011;7393;51.446;6.800;2024-03-02T10:42:52;1.97;;;1.50;;
14613;SDS011;7393;51.446;6.800;2024-03-02T10:45:20;1.10;;;1.00;;
14613;SDS011;7393;51.446;6.800;2024-03-02T10:47:47;1.50;;;1.10;;
14613;SDS011;7393;51.446;6.800;2024-03-02T10:50:15;1.73;;;1.00;;
14613;SDS011;7393;51.446;6.800;2024-03-02T10:52:43;5.03;;;1.30;;
14613;SDS011;7393;51.446;6.800;2024-03-02T10:55:11;2.93;;;1.40;;
14613;SDS011;7393;51.446;6.800;2024-03-02T10:57:41;1.97;;;1.17;;
14613;SDS011;7393;51.446;6.800;2024-03-02T11:00:11;2.53;;;1.20;;
14613;SDS011;7393;51.446;6.800;2024-03-02T11:02:42;4.13;;;1.33;;
14613;SDS011;7393;51.446;6.800;2024-03-02T11:05:16;3.83;;;1.73;;
14613;SDS011;7393;51.446;6.800;2024-03-02T11:07:51;1.30;;;1.10;;
14613;SDS011;7393;51.446;6.800;2024-03-02T11:10:23;3.50;;;1.23;;
14613;SDS011;7393;51.446;6.800;2024-03-02T11:12:52;2.03;;;1.03;;
14613;SDS011;7393;51.446;6.800;2024-03-02T11:15:22;0.97;;;0.93;;
14613;SDS011;7393;51.446;6.800;2024-03-02T11:17:51;2.63;;;1.10;;
14613;SDS011;7393;51.446;6.800;2024-03-02T11:20:19;1.00;;;0.87;;
14613;SDS011;7393;51.446;6.800;2024-03-02T11:22:47;2.07;;;0.90;;
14613;SDS011;7393;51.446;6.800;2024-03-02T11:25:25;2.13;;;0.93;;
14613;SDS011;7393;51.446;6.800;2024-03-02T11:27:59;1.80;;;1.20;;
14613;SDS011;7393;51.446;6.800;2024-03-02T11:33:15;3.53;;;1.43;;
14613;SDS011;7393;51.446;6.800;2024-03-02T11:35:54;1.50;;;1.23;;
14613;SDS011;7393;51.446;6.800;2024-03-02T11:38:22;2.73;;;1.47;;
14613;SDS011;7393;51.446;6.800;2024-03-02T11:40:51;3.33;;;1.30;;
14613;SDS011;7393;51.446;6.800;2024-03-02T11:43:18;1.87;;;1.50;;
14613;SDS011;7393;51.446;6.800;2024-03-02T11:45:46;3.07;;;1.20;;
14613;SDS011;7393;51.446;6.800;2024-03-02T11:48:13;3.57;;;1.40;;
14613;SDS011;7393;51.446;6.800;2024-03-02T11:50:41;1.87;;;1.20;;
14613;SDS011;7393;51.446;6.800;2024-03-02T11:53:12;1.80;;;1.27;;
14613;SDS011;7393;51.446;6.800;2024-03-02T11:55:39;2.33;;;1.27;;
14613;SDS011;7393;51.446;6.800;2024-03-02T11:58:10;1.93;;;1.23;;
14613;SDS011;7393;51.446;6.800;2024-03-02T12:00:37;3.00;;;1.30;;
14613;SDS011;7393;51.446;6.800;2024-03-02T12:03:05;2.90;;;1.30;;
14613;SDS011;7393;51.446;6.800;2024-03-02T12:05:33;2.63;;;1.20;;
14613;SDS011;7393;51.446;6.800;2024-03-02T12:08:01;2.30;;;1.10;;
14613;SDS011;7393;51.446;6.800;2024-03-02T12:10:30;2.97;;;1.20;;
14613;SDS011;7393;51.446;6.800;2024-03-02T12:12:57;1.10;;;0.80;;
14613;SDS011;7393;51.446;6.800;2024-03-02T12:15:27;2.00;;;1.03;;
14613;SDS011;7393;51.446;6.800;2024-03-02T12:17:54;2.87;;;1.00;;
14613;SDS011;7393;51.446;6.800;2024-03-02T12:20:22;3.50;;;1.23;;
14613;SDS011;7393;51.446;6.800;2024-03-02T12:22:49;4.90;;;1.20;;
14613;SDS011;7393;51.446;6.800;2024-03-02T12:25:18;2.73;;;1.10;;
14613;SDS011;7393;51.446;6.800;2024-03-02T12:27:46;1.27;;;1.07;;
14613;SDS011;7393;51.446;6.800;2024-03-02T12:30:13;4.20;;;1.37;;
14613;SDS011;7393;51.446;6.800;2024-03-02T12:32:42;1.97;;;1.30;;
14613;SDS011;7393;51.446;6.800;2024-03-02T12:35:10;2.17;;;1.07;;
14613;SDS011;7393;51.446;6.800;2024-03-02T12:37:42;4.50;;;1.40;;
14613;SDS011;7393;51.446;6.800;2024-03-02T12:40:10;3.53;;;1.23;;
14613;SDS011;7393;51.446;6.800;2024-03-02T12:42:37;3.17;;;1.40;;
14613;SDS011;7393;51.446;6.800;2024-03-02T12:45:04;2.13;;;1.20;;
14613;SDS011;7393;51.446;6.800;2024-03-02T12:47:32;1.83;;;1.00;;
14613;SDS011;7393;51.446;6.800;2024-03-02T12:50:01;2.50;;;1.27;;
14613;SDS011;7393;51.446;6.800;2024-03-02T12:52:28;2.93;;;1.30;;
14613;SDS011;7393;51.446;6.800;2024-03-02T12:54:55;3.93;;;1.20;;
14613;SDS011;7393;51.446;6.800;2024-03-02T12:57:24;2.37;;;1.30;;
14613;SDS011;7393;51.446;6.800;2024-03-02T12:59:52;1.27;;;1.10;;
14613;SDS011;7393;51.446;6.800;2024-03-02T13:02:22;2.30;;;1.30;;
14613;SDS011;7393;51.446;6.800;2024-03-02T13:04:52;4.00;;;1.10;;
14613;SDS011;7393;51.446;6.800;2024-03-02T13:07:21;1.43;;;1.20;;
14613;SDS011;7393;51.446;6.800;2024-03-02T13:09:49;1.97;;;0.90;;
14613;SDS011;7393;51.446;6.800;2024-03-02T13:12:16;4.17;;;1.27;;
14613;SDS011;7393;51.446;6.800;2024-03-02T13:14:43;2.50;;;0.90;;
14613;SDS011;7393;51.446;6.800;2024-03-02T13:17:10;1.47;;;0.83;;
14613;SDS011;7393;51.446;6.800;2024-03-02T13:19:43;2.17;;;1.07;;
14613;SDS011;7393;51.446;6.800;2024-03-02T13:22:16;2.23;;;0.90;;
14613;SDS011;7393;51.446;6.800;2024-03-02T13:24:45;1.10;;;0.97;;
14613;SDS011;7393;51.446;6.800;2024-03-02T13:27:11;1.37;;;0.97;;
14613;SDS011;7393;51.446;6.800;2024-03-02T13:29:38;1.80;;;0.97;;
14613;SDS011;7393;51.446;6.800;2024-03-02T13:32:05;1.90;;;0.90;;
14613;SDS011;7393;51.446;6.800;2024-03-02T13:34:33;5.20;;;1.10;;
14613;SDS011;7393;51.446;6.800;2024-03-02T13:37:00;2.07;;;1.00;;
14613;SDS011;7393;51.446;6.800;2024-03-02T13:39:27;2.27;;;1.00;;
14613;SDS011;7393;51.446;6.800;2024-03-02T13:41:57;1.87;;;1.00;;
14613;SDS011;7393;51.446;6.800;2024-03-02T13:44:29;1.87;;;0.90;;
14613;SDS011;7393;51.446;6.800;2024-03-02T13:46:56;1.80;;;1.00;;
14613;SDS011;7393;51.446;6.800;2024-03-02T13:49:23;1.40;;;1.10;;
14613;SDS011;7393;51.446;6.800;2024-03-02T13:51:53;1.23;;;0.93;;
14613;SDS011;7393;51.446;6.800;2024-03-02T13:54:21;1.63;;;1.20;;
14613;SDS011;7393;51.446;6.800;2024-03-02T13:56:48;2.03;;;1.00;;
14613;SDS011;7393;51.446;6.800;2024-03-02T13:59:16;1.90;;;1.20;;
14613;SDS011;7393;51.446;6.800;2024-03-02T14:01:44;1.47;;;1.00;;
14613;SDS011;7393;51.446;6.800;2024-03-02T14:04:10;1.73;;;0.97;;
14613;SDS011;7393;51.446;6.800;2024-03-02T14:06:38;1.63;;;1.20;;
14613;SDS011;7393;51.446;6.800;2024-03-02T14:09:05;1.20;;;0.97;;
14613;SDS011;7393;51.446;6.800;2024-03-02T14:11:31;1.50;;;1.00;;
14613;SDS011;7393;51.446;6.800;2024-03-02T14:13:58;4.00;;;1.00;;
14613;SDS011;7393;51.446;6.800;2024-03-02T14:16:26;1.23;;;1.03;;
14613;SDS011;7393;51.446;6.800;2024-03-02T14:18:53;1.77;;;1.00;;
14613;SDS011;7393;51.446;6.800;2024-03-02T14:21:20;1.80;;;0.80;;
14613;SDS011;7393;51.446;6.800;2024-03-02T14:23:47;1.23;;;0.83;;
14613;SDS011;7393;51.446;6.800;2024-03-02T14:26:13;0.67;;;0.67;;
14613;SDS011;7393;51.446;6.800;2024-03-02T14:28:40;1.70;;;0.80;;
14613;SDS011;7393;51.446;6.800;2024-03-02T14:31:07;4.00;;;1.03;;
14613;SDS011;7393;51.446;6.800;2024-03-02T14:33:35;1.63;;;0.93;;
14613;SDS011;7393;51.446;6.800;2024-03-02T14:36:02;2.73;;;0.97;;
14613;SDS011;7393;51.446;6.800;2024-03-02T14:38:30;2.27;;;0.90;;
14613;SDS011;7393;51.446;6.800;2024-03-02T14:40:57;1.33;;;0.90;;
14613;SDS011;7393;51.446;6.800;2024-03-02T14:43:24;0.73;;;0.73;;
14613;SDS011;7393;51.446;6.800;2024-03-02T14:45:50;2.63;;;0.70;;
14613;SDS011;7393;51.446;6.800;2024-03-02T14:48:17;0.90;;;0.60;;
14613;SDS011;7393;51.446;6.800;2024-03-02T14:50:45;2.33;;;0.90;;
14613;SDS011;7393;51.446;6.800;2024-03-02T14:53:12;1.00;;;0.80;;
14613;SDS011;7393;51.446;6.800;2024-03-02T14:55:39;0.70;;;0.70;;
14613;SDS011;7393;51.446;6.800;2024-03-02T14:58:06;1.87;;;0.70;;
14613;SDS011;7393;51.446;6.800;2024-03-02T15:00:33;1.40;;;0.80;;
14613;SDS011;7393;51.446;6.800;2024-03-02T15:03:00;0.73;;;0.60;;
14613;SDS011;7393;51.446;6.800;2024-03-02T15:05:28;1.27;;;0.87;;
14613;SDS011;7393;51.446;6.800;2024-03-02T15:07:57;2.10;;;0.60;;
14613;SDS011;7393;51.446;6.800;2024-03-02T15:10:24;1.13;;;0.83;;
14613;SDS011;7393;51.446;6.800;2024-03-02T15:12:52;1.67;;;0.90;;
14613;SDS011;7393;51.446;6.800;2024-03-02T15:15:19;1.77;;;0.70;;